Cadillac, Michigan
Current Conditions -  °F | °C
As of 8:55 AM on Monday 20 Oct 2014 (Local Time) from KCAD Reporting Station
Overcast Overcast  
Wind Chill: 46°   Ceiling: 600
Heat Index: 48°   Visibility: 10mi
Dew Point: 47°   Wind: 5mph
Humidity: 97%   Direction: 250°WSW
Pressure: 29.77"   Gusts: NA
Location:  44.26°N, 85.4°W
Report Text: KCAD 201255Z AUTO 25004KT 10SM OVC006 08/08 A2977 RMK AO2 T00870082
Loading
Personal Weather Stations






























Interactive Weather Map New forecast layout! Learn more

10-Day Weather Forecast

Advertisements
Track Severe Weather on mobile